Aviation Digital Data Service (ADDS)

Output produced by METARs form (0502 UTC 21 September 2017)
found at http://www.aviationweather.gov/adds/metars/
 
HKEL 210430Z 12003KT 9999 FEW017CB SCT230 10/07 Q1025
TAF HKEL 202300Z 2100/2124 10005KT CAVOK 
     BECMG 2108/2111 08010KT 9999 FEW023CB SCT024 
     TEMPO 2112/2118 VRB10KT -TSRA FEW021CB BKN022 BKN080 
     BECMG 2120/2123 11005KT CAVOK
       
HKJK 210430Z 16009KT 9999 FEW008 BKN015 15/14 Q1024
TAF HKJK 202300Z 2100/2206 03005KT 9999 FEW006 BKN015 
     BECMG 2108/2111 10010KT BKN027 
     BECMG 2120/2123 02005KT SCT021 
     BECMG 2201/2205 FEW006 BKN015
       
HKKI 210400Z 02002KT 9999 FEW017CB 17/15 Q1018
TAF HKKI 202300Z 2100/2124 08005KT CAVOK 
     BECMG 2108/2111 21010KT 9999 FEW024CB SCT025 
     TEMPO 2112/2118 VRB10KT -TSRA FEW023CB BKN024 BKN080 
     BECMG 2120/2123 09005KT CAVOK
       
HKML 210400Z 18010KT 9999 SCT020TCU 26/23 Q1015
HKMO 210400Z 21007KT 9999 BKN018TCU 24/24 Q1016 NOSIG
TAF HKMO 201700Z 2018/2124 18010KT 9999 FEW021 
     TEMPO 2100?2106 24005KT -SHRA BKN018 BKN080 
     BECMG 2109/2112 15010KT SCT020 
     BECMG 2118/2121 21005KT SCT018
       
HKWJ 210300Z 17008KT 9999 OVC019 25/21 Q1013